sensor_id;sensor_type;location;lat;lon;timestamp;temperature;humidity
15111;DHT22;7656;51.954;7.998;2022-09-13T00:01:13;16.70;99.90
15111;DHT22;7656;51.954;7.998;2022-09-13T00:05:35;16.90;99.90
15111;DHT22;7656;51.954;7.998;2022-09-13T00:09:57;16.90;99.90
15111;DHT22;7656;51.954;7.998;2022-09-13T00:14:18;16.90;99.90
15111;DHT22;7656;51.954;7.998;2022-09-13T00:18:40;17.10;99.90
15111;DHT22;7656;51.954;7.998;2022-09-13T00:23:01;17.10;99.90
15111;DHT22;7656;51.954;7.998;2022-09-13T00:27:22;17.20;99.90
15111;DHT22;7656;51.954;7.998;2022-09-13T00:31:43;17.40;99.90
15111;DHT22;7656;51.954;7.998;2022-09-13T00:36:06;17.50;99.90
15111;DHT22;7656;51.954;7.998;2022-09-13T00:40:29;17.60;99.90
15111;DHT22;7656;51.954;7.998;2022-09-13T00:49:34;17.70;99.90
15111;DHT22;7656;51.954;7.998;2022-09-13T00:53:57;17.80;99.90
15111;DHT22;7656;51.954;7.998;2022-09-13T01:03:03;17.90;99.90
15111;DHT22;7656;51.954;7.998;2022-09-13T01:07:27;17.90;99.90
15111;DHT22;7656;51.954;7.998;2022-09-13T01:11:55;18.10;99.90
15111;DHT22;7656;51.954;7.998;2022-09-13T01:16:23;18.20;99.90
15111;DHT22;7656;51.954;7.998;2022-09-13T01:25:56;18.30;99.90
15111;DHT22;7656;51.954;7.998;2022-09-13T01:30:55;18.40;99.90
15111;DHT22;7656;51.954;7.998;2022-09-13T01:44:44;18.60;99.90
15111;DHT22;7656;51.954;7.998;2022-09-13T01:49:32;18.70;99.90
15111;DHT22;7656;51.954;7.998;2022-09-13T01:58:59;18.70;99.90
15111;DHT22;7656;51.954;7.998;2022-09-13T02:03:30;18.80;99.90
15111;DHT22;7656;51.954;7.998;2022-09-13T02:08:34;18.90;99.90
15111;DHT22;7656;51.954;7.998;2022-09-13T02:13:12;19.00;99.90
15111;DHT22;7656;51.954;7.998;2022-09-13T02:17:39;18.90;99.90
15111;DHT22;7656;51.954;7.998;2022-09-13T02:22:05;18.60;99.90
15111;DHT22;7656;51.954;7.998;2022-09-13T02:26:28;18.50;99.90
15111;DHT22;7656;51.954;7.998;2022-09-13T02:30:52;18.20;99.90
15111;DHT22;7656;51.954;7.998;2022-09-13T02:40:21;18.60;99.90
15111;DHT22;7656;51.954;7.998;2022-09-13T02:44:50;18.60;99.90
15111;DHT22;7656;51.954;7.998;2022-09-13T02:58:42;18.40;99.90
15111;DHT22;7656;51.954;7.998;2022-09-13T03:03:09;18.30;99.90
15111;DHT22;7656;51.954;7.998;2022-09-13T03:07:32;18.20;99.90
15111;DHT22;7656;51.954;7.998;2022-09-13T03:17:21;18.40;99.90
15111;DHT22;7656;51.954;7.998;2022-09-13T03:22:36;18.50;99.90
15111;DHT22;7656;51.954;7.998;2022-09-13T03:27:33;18.30;99.90
15111;DHT22;7656;51.954;7.998;2022-09-13T03:36:56;18.00;99.90
15111;DHT22;7656;51.954;7.998;2022-09-13T03:41:26;18.20;99.90
15111;DHT22;7656;51.954;7.998;2022-09-13T03:45:56;18.30;99.90
15111;DHT22;7656;51.954;7.998;2022-09-13T03:50:21;18.40;99.90
15111;DHT22;7656;51.954;7.998;2022-09-13T03:54:44;18.50;99.90
15111;DHT22;7656;51.954;7.998;2022-09-13T03:59:05;18.60;99.90
15111;DHT22;7656;51.954;7.998;2022-09-13T04:03:26;18.60;99.90
15111;DHT22;7656;51.954;7.998;2022-09-13T04:07:47;18.60;99.90
15111;DHT22;7656;51.954;7.998;2022-09-13T04:12:09;18.60;99.90
15111;DHT22;7656;51.954;7.998;2022-09-13T04:16:30;18.70;99.90
15111;DHT22;7656;51.954;7.998;2022-09-13T04:20:57;18.60;99.90
15111;DHT22;7656;51.954;7.998;2022-09-13T04:25:20;18.70;99.90
15111;DHT22;7656;51.954;7.998;2022-09-13T04:29:42;18.70;99.90
15111;DHT22;7656;51.954;7.998;2022-09-13T04:34:03;18.80;99.90
15111;DHT22;7656;51.954;7.998;2022-09-13T04:38:24;18.70;99.90
15111;DHT22;7656;51.954;7.998;2022-09-13T04:42:46;18.70;99.90
15111;DHT22;7656;51.954;7.998;2022-09-13T04:47:07;18.70;99.90
15111;DHT22;7656;51.954;7.998;2022-09-13T04:51:29;18.60;99.90
15111;DHT22;7656;51.954;7.998;2022-09-13T04:55:50;18.60;99.90
15111;DHT22;7656;51.954;7.998;2022-09-13T05:00:11;18.60;99.90
15111;DHT22;7656;51.954;7.998;2022-09-13T05:04:32;18.70;99.90
15111;DHT22;7656;51.954;7.998;2022-09-13T05:08:54;18.70;99.90
15111;DHT22;7656;51.954;7.998;2022-09-13T05:13:16;18.70;99.90
15111;DHT22;7656;51.954;7.998;2022-09-13T05:17:37;18.60;99.90
15111;DHT22;7656;51.954;7.998;2022-09-13T05:21:59;18.80;99.90
15111;DHT22;7656;51.954;7.998;2022-09-13T05:26:24;18.20;99.90
15111;DHT22;7656;51.954;7.998;2022-09-13T05:31:00;18.30;99.90
15111;DHT22;7656;51.954;7.998;2022-09-13T05:35:22;18.40;99.90
15111;DHT22;7656;51.954;7.998;2022-09-13T05:39:43;18.30;99.90
15111;DHT22;7656;51.954;7.998;2022-09-13T05:44:04;18.40;99.90
15111;DHT22;7656;51.954;7.998;2022-09-13T05:48:25;18.40;99.90
15111;DHT22;7656;51.954;7.998;2022-09-13T05:52:55;18.50;99.90
15111;DHT22;7656;51.954;7.998;2022-09-13T05:57:16;18.80;99.90
15111;DHT22;7656;51.954;7.998;2022-09-13T06:01:37;18.90;99.90
15111;DHT22;7656;51.954;7.998;2022-09-13T06:05:58;18.80;99.90
15111;DHT22;7656;51.954;7.998;2022-09-13T06:10:20;19.00;99.90
15111;DHT22;7656;51.954;7.998;2022-09-13T06:14:41;19.10;99.90
15111;DHT22;7656;51.954;7.998;2022-09-13T06:19:02;19.10;99.90
15111;DHT22;7656;51.954;7.998;2022-09-13T06:23:23;19.20;99.90
15111;DHT22;7656;51.954;7.998;2022-09-13T06:27:44;19.30;99.90
15111;DHT22;7656;51.954;7.998;2022-09-13T06:32:06;19.50;99.90
15111;DHT22;7656;51.954;7.998;2022-09-13T06:36:27;19.60;99.90
15111;DHT22;7656;51.954;7.998;2022-09-13T06:45:29;20.40;99.90
15111;DHT22;7656;51.954;7.998;2022-09-13T06:49:50;21.10;99.90
15111;DHT22;7656;51.954;7.998;2022-09-13T06:54:11;21.20;99.90
15111;DHT22;7656;51.954;7.998;2022-09-13T06:58:34;21.30;99.90
15111;DHT22;7656;51.954;7.998;2022-09-13T07:02:55;21.20;99.90
15111;DHT22;7656;51.954;7.998;2022-09-13T07:07:16;23.00;99.90
15111;DHT22;7656;51.954;7.998;2022-09-13T07:11:40;24.80;99.90
15111;DHT22;7656;51.954;7.998;2022-09-13T07:16:07;25.20;99.90
15111;DHT22;7656;51.954;7.998;2022-09-13T07:20:29;25.00;99.90
15111;DHT22;7656;51.954;7.998;2022-09-13T07:24:50;25.10;99.90
15111;DHT22;7656;51.954;7.998;2022-09-13T07:29:13;25.20;99.90
15111;DHT22;7656;51.954;7.998;2022-09-13T07:33:41;24.70;99.90
15111;DHT22;7656;51.954;7.998;2022-09-13T07:38:02;24.30;99.90
15111;DHT22;7656;51.954;7.998;2022-09-13T07:42:23;24.60;99.90
15111;DHT22;7656;51.954;7.998;2022-09-13T07:46:45;25.10;99.90
15111;DHT22;7656;51.954;7.998;2022-09-13T07:51:07;25.20;99.90
15111;DHT22;7656;51.954;7.998;2022-09-13T07:55:30;25.00;99.90
15111;DHT22;7656;51.954;7.998;2022-09-13T07:59:51;24.90;99.90
15111;DHT22;7656;51.954;7.998;2022-09-13T08:04:15;24.60;99.90
15111;DHT22;7656;51.954;7.998;2022-09-13T08:08:38;24.40;99.90
15111;DHT22;7656;51.954;7.998;2022-09-13T08:13:00;24.20;99.90
15111;DHT22;7656;51.954;7.998;2022-09-13T08:17:21;24.00;99.90
15111;DHT22;7656;51.954;7.998;2022-09-13T08:21:43;23.90;99.90
15111;DHT22;7656;51.954;7.998;2022-09-13T08:26:05;23.80;99.90
15111;DHT22;7656;51.954;7.998;2022-09-13T08:30:27;23.70;99.90
15111;DHT22;7656;51.954;7.998;2022-09-13T08:34:52;23.60;99.90
15111;DHT22;7656;51.954;7.998;2022-09-13T08:39:14;23.50;99.90
15111;DHT22;7656;51.954;7.998;2022-09-13T08:43:39;23.50;99.90
15111;DHT22;7656;51.954;7.998;2022-09-13T08:48:13;23.40;99.90
15111;DHT22;7656;51.954;7.998;2022-09-13T08:53:13;23.20;99.90
15111;DHT22;7656;51.954;7.998;2022-09-13T08:57:54;23.20;99.90
15111;DHT22;7656;51.954;7.998;2022-09-13T09:07:47;23.00;99.90
15111;DHT22;7656;51.954;7.998;2022-09-13T09:12:30;23.10;99.90
15111;DHT22;7656;51.954;7.998;2022-09-13T09:16:56;23.20;99.90
15111;DHT22;7656;51.954;7.998;2022-09-13T09:21:24;23.40;99.90
15111;DHT22;7656;51.954;7.998;2022-09-13T09:25:46;23.70;99.90
15111;DHT22;7656;51.954;7.998;2022-09-13T09:30:14;24.10;99.90
15111;DHT22;7656;51.954;7.998;2022-09-13T09:35:11;24.30;99.90
15111;DHT22;7656;51.954;7.998;2022-09-13T09:39:44;24.20;99.90
15111;DHT22;7656;51.954;7.998;2022-09-13T09:44:17;24.30;99.90
15111;DHT22;7656;51.954;7.998;2022-09-13T09:48:55;24.40;99.90
15111;DHT22;7656;51.954;7.998;2022-09-13T09:53:28;24.60;99.90
15111;DHT22;7656;51.954;7.998;2022-09-13T09:58:01;24.50;99.90
15111;DHT22;7656;51.954;7.998;2022-09-13T10:02:28;24.90;99.90
15111;DHT22;7656;51.954;7.998;2022-09-13T10:06:49;25.00;99.90
15111;DHT22;7656;51.954;7.998;2022-09-13T10:11:12;25.00;99.90
15111;DHT22;7656;51.954;7.998;2022-09-13T10:15:34;24.60;99.90
15111;DHT22;7656;51.954;7.998;2022-09-13T10:20:18;24.70;99.90
15111;DHT22;7656;51.954;7.998;2022-09-13T10:24:41;25.00;99.90
15111;DHT22;7656;51.954;7.998;2022-09-13T10:29:08;25.20;99.90
15111;DHT22;7656;51.954;7.998;2022-09-13T10:33:36;26.20;99.90
15111;DHT22;7656;51.954;7.998;2022-09-13T10:37:59;26.90;99.90
15111;DHT22;7656;51.954;7.998;2022-09-13T10:42:23;26.70;99.90
15111;DHT22;7656;51.954;7.998;2022-09-13T10:46:47;26.20;99.90
15111;DHT22;7656;51.954;7.998;2022-09-13T10:51:30;26.40;99.90
15111;DHT22;7656;51.954;7.998;2022-09-13T10:55:53;26.00;99.90
15111;DHT22;7656;51.954;7.998;2022-09-13T11:00:18;25.80;99.90
15111;DHT22;7656;51.954;7.998;2022-09-13T11:58:28;24.70;99.90
15111;DHT22;7656;51.954;7.998;2022-09-13T12:03:22;24.80;99.90
15111;DHT22;7656;51.954;7.998;2022-09-13T12:08:02;24.70;99.90
15111;DHT22;7656;51.954;7.998;2022-09-13T12:12:31;24.20;99.90
15111;DHT22;7656;51.954;7.998;2022-09-13T12:16:57;24.20;99.90
15111;DHT22;7656;51.954;7.998;2022-09-13T12:21:23;24.00;99.90
15111;DHT22;7656;51.954;7.998;2022-09-13T12:26:02;23.70;99.90
15111;DHT22;7656;51.954;7.998;2022-09-13T12:30:36;23.80;99.90
15111;DHT22;7656;51.954;7.998;2022-09-13T12:35:04;23.70;99.90
15111;DHT22;7656;51.954;7.998;2022-09-13T12:49:30;24.00;99.90
15111;DHT22;7656;51.954;7.998;2022-09-13T12:59:53;24.40;99.90
15111;DHT22;7656;51.954;7.998;2022-09-13T13:04:35;24.40;99.90
15111;DHT22;7656;51.954;7.998;2022-09-13T13:09:00;24.80;99.90
15111;DHT22;7656;51.954;7.998;2022-09-13T13:13:44;25.20;99.90
15111;DHT22;7656;51.954;7.998;2022-09-13T13:23:26;26.00;99.90
15111;DHT22;7656;51.954;7.998;2022-09-13T13:27:55;26.60;99.90
15111;DHT22;7656;51.954;7.998;2022-09-13T13:32:16;26.40;99.90
15111;DHT22;7656;51.954;7.998;2022-09-13T13:41:17;26.40;99.90
15111;DHT22;7656;51.954;7.998;2022-09-13T13:46:27;26.30;99.90
15111;DHT22;7656;51.954;7.998;2022-09-13T13:51:23;25.80;99.90
15111;DHT22;7656;51.954;7.998;2022-09-13T13:55:48;25.80;99.90
15111;DHT22;7656;51.954;7.998;2022-09-13T14:00:47;26.30;99.90
15111;DHT22;7656;51.954;7.998;2022-09-13T14:10:27;25.80;99.90
15111;DHT22;7656;51.954;7.998;2022-09-13T14:19:43;26.40;99.90
15111;DHT22;7656;51.954;7.998;2022-09-13T14:24:27;26.20;99.90
15111;DHT22;7656;51.954;7.998;2022-09-13T14:28:48;27.10;99.90
15111;DHT22;7656;51.954;7.998;2022-09-13T14:33:26;27.80;99.90
15111;DHT22;7656;51.954;7.998;2022-09-13T14:37:52;28.30;99.90
15111;DHT22;7656;51.954;7.998;2022-09-13T14:42:14;28.40;99.90
15111;DHT22;7656;51.954;7.998;2022-09-13T14:46:38;28.40;99.90
15111;DHT22;7656;51.954;7.998;2022-09-13T14:51:17;28.00;99.90
15111;DHT22;7656;51.954;7.998;2022-09-13T14:55:54;27.40;99.90
15111;DHT22;7656;51.954;7.998;2022-09-13T15:00:19;27.80;99.90
15111;DHT22;7656;51.954;7.998;2022-09-13T15:04:46;28.00;99.90
15111;DHT22;7656;51.954;7.998;2022-09-13T15:13:32;27.60;99.90
15111;DHT22;7656;51.954;7.998;2022-09-13T15:17:56;27.70;99.90
15111;DHT22;7656;51.954;7.998;2022-09-13T15:22:29;27.20;99.90
15111;DHT22;7656;51.954;7.998;2022-09-13T15:27:06;26.70;99.90
15111;DHT22;7656;51.954;7.998;2022-09-13T15:31:36;26.30;99.90
15111;DHT22;7656;51.954;7.998;2022-09-13T15:40:42;26.20;99.90
15111;DHT22;7656;51.954;7.998;2022-09-13T15:45:05;26.30;99.90
15111;DHT22;7656;51.954;7.998;2022-09-13T15:49:27;26.60;99.90
15111;DHT22;7656;51.954;7.998;2022-09-13T15:53:49;26.80;99.90
15111;DHT22;7656;51.954;7.998;2022-09-13T15:58:11;26.30;99.90
15111;DHT22;7656;51.954;7.998;2022-09-13T16:02:33;25.90;99.90
15111;DHT22;7656;51.954;7.998;2022-09-13T16:06:55;25.70;99.90
15111;DHT22;7656;51.954;7.998;2022-09-13T16:11:16;25.40;99.90
15111;DHT22;7656;51.954;7.998;2022-09-13T16:15:37;25.20;99.90
15111;DHT22;7656;51.954;7.998;2022-09-13T16:19:59;25.20;99.90
15111;DHT22;7656;51.954;7.998;2022-09-13T16:24:20;25.40;99.90
15111;DHT22;7656;51.954;7.998;2022-09-13T16:28:41;25.30;99.90
15111;DHT22;7656;51.954;7.998;2022-09-13T16:33:02;25.40;99.90
15111;DHT22;7656;51.954;7.998;2022-09-13T16:37:24;25.40;99.90
15111;DHT22;7656;51.954;7.998;2022-09-13T16:41:45;25.30;99.90
15111;DHT22;7656;51.954;7.998;2022-09-13T16:46:07;25.20;99.90
15111;DHT22;7656;51.954;7.998;2022-09-13T16:50:29;25.20;99.90
15111;DHT22;7656;51.954;7.998;2022-09-13T16:54:51;25.10;99.90
15111;DHT22;7656;51.954;7.998;2022-09-13T16:59:12;24.90;99.90
15111;DHT22;7656;51.954;7.998;2022-09-13T17:03:34;24.80;99.90
15111;DHT22;7656;51.954;7.998;2022-09-13T17:07:56;24.70;99.90
15111;DHT22;7656;51.954;7.998;2022-09-13T17:12:17;24.50;99.90
15111;DHT22;7656;51.954;7.998;2022-09-13T17:16:41;24.50;99.90
15111;DHT22;7656;51.954;7.998;2022-09-13T17:21:07;24.40;99.90
15111;DHT22;7656;51.954;7.998;2022-09-13T17:25:28;24.20;99.90
15111;DHT22;7656;51.954;7.998;2022-09-13T17:29:49;24.10;99.90
15111;DHT22;7656;51.954;7.998;2022-09-13T17:34:11;24.00;99.90
15111;DHT22;7656;51.954;7.998;2022-09-13T17:38:34;23.80;99.90
15111;DHT22;7656;51.954;7.998;2022-09-13T17:42:56;23.70;99.90
15111;DHT22;7656;51.954;7.998;2022-09-13T17:47:17;23.40;99.90
15111;DHT22;7656;51.954;7.998;2022-09-13T17:51:38;23.30;99.90
15111;DHT22;7656;51.954;7.998;2022-09-13T17:56:00;23.10;99.90
15111;DHT22;7656;51.954;7.998;2022-09-13T18:00:21;22.90;99.90
15111;DHT22;7656;51.954;7.998;2022-09-13T18:04:42;22.60;99.90
15111;DHT22;7656;51.954;7.998;2022-09-13T18:09:03;22.40;99.90
15111;DHT22;7656;51.954;7.998;2022-09-13T18:13:24;22.40;99.90
15111;DHT22;7656;51.954;7.998;2022-09-13T18:17:45;22.30;99.90
15111;DHT22;7656;51.954;7.998;2022-09-13T18:22:07;22.30;99.90
15111;DHT22;7656;51.954;7.998;2022-09-13T18:26:30;22.20;99.90
15111;DHT22;7656;51.954;7.998;2022-09-13T18:30:55;22.10;99.90
15111;DHT22;7656;51.954;7.998;2022-09-13T18:35:17;22.00;99.90
15111;DHT22;7656;51.954;7.998;2022-09-13T18:39:38;21.90;99.90
15111;DHT22;7656;51.954;7.998;2022-09-13T18:43:59;21.80;99.90
15111;DHT22;7656;51.954;7.998;2022-09-13T18:48:21;21.70;99.90
15111;DHT22;7656;51.954;7.998;2022-09-13T18:52:42;21.70;99.90
15111;DHT22;7656;51.954;7.998;2022-09-13T18:57:03;21.60;99.90
15111;DHT22;7656;51.954;7.998;2022-09-13T19:01:27;21.50;99.90
15111;DHT22;7656;51.954;7.998;2022-09-13T19:05:51;21.40;99.90
15111;DHT22;7656;51.954;7.998;2022-09-13T19:10:12;21.40;99.90
15111;DHT22;7656;51.954;7.998;2022-09-13T19:14:33;21.30;99.90
15111;DHT22;7656;51.954;7.998;2022-09-13T19:18:55;21.30;99.90
15111;DHT22;7656;51.954;7.998;2022-09-13T19:23:16;21.20;99.90
15111;DHT22;7656;51.954;7.998;2022-09-13T19:27:37;21.00;99.90
15111;DHT22;7656;51.954;7.998;2022-09-13T19:31:59;20.80;99.90
15111;DHT22;7656;51.954;7.998;2022-09-13T19:36:25;20.70;99.90
15111;DHT22;7656;51.954;7.998;2022-09-13T19:41:01;20.70;99.90
15111;DHT22;7656;51.954;7.998;2022-09-13T19:45:23;20.50;99.90
15111;DHT22;7656;51.954;7.998;2022-09-13T19:49:45;20.50;99.90
15111;DHT22;7656;51.954;7.998;2022-09-13T19:54:12;20.60;99.90
15111;DHT22;7656;51.954;7.998;2022-09-13T19:58:34;20.50;99.90
15111;DHT22;7656;51.954;7.998;2022-09-13T20:02:55;20.40;99.90
15111;DHT22;7656;51.954;7.998;2022-09-13T20:07:17;20.20;99.90
15111;DHT22;7656;51.954;7.998;2022-09-13T20:11:38;20.20;99.90
15111;DHT22;7656;51.954;7.998;2022-09-13T20:16:00;20.20;99.90
15111;DHT22;7656;51.954;7.998;2022-09-13T20:20:22;20.10;99.90
15111;DHT22;7656;51.954;7.998;2022-09-13T20:24:44;20.00;99.90
15111;DHT22;7656;51.954;7.998;2022-09-13T20:29:06;20.00;99.90
15111;DHT22;7656;51.954;7.998;2022-09-13T20:33:28;19.90;99.90
15111;DHT22;7656;51.954;7.998;2022-09-13T20:37:49;19.90;99.90
15111;DHT22;7656;51.954;7.998;2022-09-13T20:42:10;19.80;99.90
15111;DHT22;7656;51.954;7.998;2022-09-13T20:46:32;19.70;99.90
15111;DHT22;7656;51.954;7.998;2022-09-13T20:51:01;19.70;99.90
15111;DHT22;7656;51.954;7.998;2022-09-13T20:55:30;19.60;99.90
15111;DHT22;7656;51.954;7.998;2022-09-13T20:59:53;19.50;99.90
15111;DHT22;7656;51.954;7.998;2022-09-13T21:04:14;19.40;99.90
15111;DHT22;7656;51.954;7.998;2022-09-13T21:08:38;19.40;99.90
15111;DHT22;7656;51.954;7.998;2022-09-13T21:13:03;19.40;99.90
15111;DHT22;7656;51.954;7.998;2022-09-13T21:17:24;19.30;99.90
15111;DHT22;7656;51.954;7.998;2022-09-13T21:21:46;19.30;99.90
15111;DHT22;7656;51.954;7.998;2022-09-13T21:26:10;19.30;99.90
15111;DHT22;7656;51.954;7.998;2022-09-13T21:30:32;19.20;99.90
15111;DHT22;7656;51.954;7.998;2022-09-13T21:34:53;19.20;99.90
15111;DHT22;7656;51.954;7.998;2022-09-13T21:39:15;19.20;99.90
15111;DHT22;7656;51.954;7.998;2022-09-13T21:43:37;19.10;99.90
15111;DHT22;7656;51.954;7.998;2022-09-13T21:47:59;19.10;99.90
15111;DHT22;7656;51.954;7.998;2022-09-13T21:52:20;19.00;99.90
15111;DHT22;7656;51.954;7.998;2022-09-13T21:56:43;19.00;99.90
15111;DHT22;7656;51.954;7.998;2022-09-13T22:01:13;19.00;99.90
15111;DHT22;7656;51.954;7.998;2022-09-13T22:05:35;19.00;99.90
15111;DHT22;7656;51.954;7.998;2022-09-13T22:09:56;19.00;99.90
15111;DHT22;7656;51.954;7.998;2022-09-13T22:14:19;19.00;99.90
15111;DHT22;7656;51.954;7.998;2022-09-13T22:18:42;18.90;99.90
15111;DHT22;7656;51.954;7.998;2022-09-13T22:23:03;19.00;99.90
15111;DHT22;7656;51.954;7.998;2022-09-13T22:27:24;19.00;99.90
15111;DHT22;7656;51.954;7.998;2022-09-13T22:31:47;19.10;99.90
15111;DHT22;7656;51.954;7.998;2022-09-13T22:36:11;19.00;99.90
15111;DHT22;7656;51.954;7.998;2022-09-13T22:40:33;19.00;99.90
15111;DHT22;7656;51.954;7.998;2022-09-13T22:44:56;19.00;99.90
15111;DHT22;7656;51.954;7.998;2022-09-13T22:49:18;19.00;99.90
15111;DHT22;7656;51.954;7.998;2022-09-13T22:53:41;19.00;99.90
15111;DHT22;7656;51.954;7.998;2022-09-13T22:58:02;19.00;99.90
15111;DHT22;7656;51.954;7.998;2022-09-13T23:02:24;19.00;99.90
15111;DHT22;7656;51.954;7.998;2022-09-13T23:06:45;19.00;99.90
15111;DHT22;7656;51.954;7.998;2022-09-13T23:11:15;19.00;99.90
15111;DHT22;7656;51.954;7.998;2022-09-13T23:15:38;18.90;99.90
15111;DHT22;7656;51.954;7.998;2022-09-13T23:19:59;18.90;99.90
15111;DHT22;7656;51.954;7.998;2022-09-13T23:24:21;18.90;99.90
15111;DHT22;7656;51.954;7.998;2022-09-13T23:28:45;18.90;99.90
15111;DHT22;7656;51.954;7.998;2022-09-13T23:33:07;18.90;99.90
15111;DHT22;7656;51.954;7.998;2022-09-13T23:37:31;18.90;99.90
15111;DHT22;7656;51.954;7.998;2022-09-13T23:41:52;18.80;99.90
15111;DHT22;7656;51.954;7.998;2022-09-13T23:46:13;18.90;99.90
15111;DHT22;7656;51.954;7.998;2022-09-13T23:50:35;19.00;99.90
15111;DHT22;7656;51.954;7.998;2022-09-13T23:54:56;19.00;99.90
15111;DHT22;7656;51.954;7.998;2022-09-13T23:59:20;18.90;99.90
